sensor_id;sensor_type;location;lat;lon;timestamp;temperature;humidity
13251;DHT22;6692;50.710;7.180;2024-01-15T00:00:32;2.60;99.90
13251;DHT22;6692;50.710;7.180;2024-01-15T00:02:32;2.60;99.90
13251;DHT22;6692;50.710;7.180;2024-01-15T00:04:37;2.60;99.90
13251;DHT22;6692;50.710;7.180;2024-01-15T00:06:38;2.70;99.90
13251;DHT22;6692;50.710;7.180;2024-01-15T00:08:38;2.70;99.90
13251;DHT22;6692;50.710;7.180;2024-01-15T00:10:39;2.70;99.90
13251;DHT22;6692;50.710;7.180;2024-01-15T00:12:40;2.70;99.90
13251;DHT22;6692;50.710;7.180;2024-01-15T00:14:40;2.70;99.90
13251;DHT22;6692;50.710;7.180;2024-01-15T00:16:42;2.70;99.90
13251;DHT22;6692;50.710;7.180;2024-01-15T00:18:43;2.70;99.90
13251;DHT22;6692;50.710;7.180;2024-01-15T00:20:44;2.70;99.90
13251;DHT22;6692;50.710;7.180;2024-01-15T00:22:44;2.70;99.90
13251;DHT22;6692;50.710;7.180;2024-01-15T00:24:45;2.70;99.90
13251;DHT22;6692;50.710;7.180;2024-01-15T00:26:46;2.70;99.90
13251;DHT22;6692;50.710;7.180;2024-01-15T00:28:47;2.70;99.90
13251;DHT22;6692;50.710;7.180;2024-01-15T00:30:47;2.70;99.90
13251;DHT22;6692;50.710;7.180;2024-01-15T00:32:48;2.70;99.90
13251;DHT22;6692;50.710;7.180;2024-01-15T00:34:49;2.70;99.90
13251;DHT22;6692;50.710;7.180;2024-01-15T00:36:50;2.70;99.90
13251;DHT22;6692;50.710;7.180;2024-01-15T00:38:51;2.70;99.90
13251;DHT22;6692;50.710;7.180;2024-01-15T00:40:52;2.70;99.90
13251;DHT22;6692;50.710;7.180;2024-01-15T00:42:52;2.70;99.90
13251;DHT22;6692;50.710;7.180;2024-01-15T00:44:53;2.60;99.90
13251;DHT22;6692;50.710;7.180;2024-01-15T00:46:55;2.50;99.90
13251;DHT22;6692;50.710;7.180;2024-01-15T00:48:55;2.50;99.90
13251;DHT22;6692;50.710;7.180;2024-01-15T00:50:56;2.50;99.90
13251;DHT22;6692;50.710;7.180;2024-01-15T00:52:57;2.50;99.90
13251;DHT22;6692;50.710;7.180;2024-01-15T00:54:58;2.50;99.90
13251;DHT22;6692;50.710;7.180;2024-01-15T00:56:59;2.40;99.90
13251;DHT22;6692;50.710;7.180;2024-01-15T00:59:00;2.40;99.90
13251;DHT22;6692;50.710;7.180;2024-01-15T01:01:01;2.40;99.90
13251;DHT22;6692;50.710;7.180;2024-01-15T01:03:02;2.30;99.90
13251;DHT22;6692;50.710;7.180;2024-01-15T01:05:03;2.30;99.90
13251;DHT22;6692;50.710;7.180;2024-01-15T01:07:04;2.20;99.90
13251;DHT22;6692;50.710;7.180;2024-01-15T01:09:05;2.10;99.90
13251;DHT22;6692;50.710;7.180;2024-01-15T01:11:06;2.00;99.90
13251;DHT22;6692;50.710;7.180;2024-01-15T01:13:08;2.00;99.90
13251;DHT22;6692;50.710;7.180;2024-01-15T01:15:09;2.00;99.90
13251;DHT22;6692;50.710;7.180;2024-01-15T01:17:11;2.00;99.90
13251;DHT22;6692;50.710;7.180;2024-01-15T01:19:12;2.00;99.90
13251;DHT22;6692;50.710;7.180;2024-01-15T01:21:13;2.00;99.90
13251;DHT22;6692;50.710;7.180;2024-01-15T01:23:14;2.00;99.90
13251;DHT22;6692;50.710;7.180;2024-01-15T01:25:15;2.00;99.90
13251;DHT22;6692;50.710;7.180;2024-01-15T01:27:16;2.00;99.90
13251;DHT22;6692;50.710;7.180;2024-01-15T01:29:16;2.00;99.90
13251;DHT22;6692;50.710;7.180;2024-01-15T01:31:17;2.00;99.90
13251;DHT22;6692;50.710;7.180;2024-01-15T01:33:18;2.00;99.90
13251;DHT22;6692;50.710;7.180;2024-01-15T01:35:19;2.00;99.90
13251;DHT22;6692;50.710;7.180;2024-01-15T01:37:19;2.10;99.90
13251;DHT22;6692;50.710;7.180;2024-01-15T01:39:21;2.10;99.90
13251;DHT22;6692;50.710;7.180;2024-01-15T01:41:21;2.10;99.90
13251;DHT22;6692;50.710;7.180;2024-01-15T01:43:22;2.10;99.90
13251;DHT22;6692;50.710;7.180;2024-01-15T01:45:23;2.10;99.90
13251;DHT22;6692;50.710;7.180;2024-01-15T01:47:24;2.00;99.90
13251;DHT22;6692;50.710;7.180;2024-01-15T01:49:26;2.00;99.90
13251;DHT22;6692;50.710;7.180;2024-01-15T01:51:26;2.00;99.90
13251;DHT22;6692;50.710;7.180;2024-01-15T01:53:27;1.90;99.90
13251;DHT22;6692;50.710;7.180;2024-01-15T01:55:27;1.90;99.90
13251;DHT22;6692;50.710;7.180;2024-01-15T01:57:29;1.90;99.90
13251;DHT22;6692;50.710;7.180;2024-01-15T01:59:29;1.80;99.90
13251;DHT22;6692;50.710;7.180;2024-01-15T02:01:30;1.80;99.90
13251;DHT22;6692;50.710;7.180;2024-01-15T02:03:30;1.80;99.90
13251;DHT22;6692;50.710;7.180;2024-01-15T02:05:31;1.80;99.90
13251;DHT22;6692;50.710;7.180;2024-01-15T02:07:34;1.80;99.90
13251;DHT22;6692;50.710;7.180;2024-01-15T02:09:32;1.80;99.90
13251;DHT22;6692;50.710;7.180;2024-01-15T02:11:33;1.80;99.90
13251;DHT22;6692;50.710;7.180;2024-01-15T02:13:34;1.90;99.90
13251;DHT22;6692;50.710;7.180;2024-01-15T02:15:35;1.90;99.90
13251;DHT22;6692;50.710;7.180;2024-01-15T02:17:43;1.90;99.90
13251;DHT22;6692;50.710;7.180;2024-01-15T02:19:37;1.90;99.90
13251;DHT22;6692;50.710;7.180;2024-01-15T02:21:37;1.90;99.90
13251;DHT22;6692;50.710;7.180;2024-01-15T02:23:38;1.90;99.90
13251;DHT22;6692;50.710;7.180;2024-01-15T02:25:39;1.90;99.90
13251;DHT22;6692;50.710;7.180;2024-01-15T02:27:40;1.90;99.90
13251;DHT22;6692;50.710;7.180;2024-01-15T02:29:40;2.00;99.90
13251;DHT22;6692;50.710;7.180;2024-01-15T02:31:41;2.00;99.90
13251;DHT22;6692;50.710;7.180;2024-01-15T02:33:43;2.00;99.90
13251;DHT22;6692;50.710;7.180;2024-01-15T02:35:43;2.00;99.90
13251;DHT22;6692;50.710;7.180;2024-01-15T02:37:44;2.10;99.90
13251;DHT22;6692;50.710;7.180;2024-01-15T02:39:45;2.10;99.90
13251;DHT22;6692;50.710;7.180;2024-01-15T02:41:46;2.10;99.90
13251;DHT22;6692;50.710;7.180;2024-01-15T02:43:47;2.10;99.90
13251;DHT22;6692;50.710;7.180;2024-01-15T02:45:48;2.10;99.90
13251;DHT22;6692;50.710;7.180;2024-01-15T02:47:50;2.10;99.90
13251;DHT22;6692;50.710;7.180;2024-01-15T02:49:51;2.20;99.90
13251;DHT22;6692;50.710;7.180;2024-01-15T02:51:52;2.20;99.90
13251;DHT22;6692;50.710;7.180;2024-01-15T02:53:53;2.20;99.90
13251;DHT22;6692;50.710;7.180;2024-01-15T02:55:54;2.20;99.90
13251;DHT22;6692;50.710;7.180;2024-01-15T02:57:59;2.20;99.90
13251;DHT22;6692;50.710;7.180;2024-01-15T03:00:00;2.20;99.90
13251;DHT22;6692;50.710;7.180;2024-01-15T03:02:04;2.20;99.90
13251;DHT22;6692;50.710;7.180;2024-01-15T03:04:06;2.20;99.90
13251;DHT22;6692;50.710;7.180;2024-01-15T03:06:07;2.20;99.90
13251;DHT22;6692;50.710;7.180;2024-01-15T03:08:08;2.20;99.90
13251;DHT22;6692;50.710;7.180;2024-01-15T03:10:09;2.20;99.90
13251;DHT22;6692;50.710;7.180;2024-01-15T03:12:18;2.20;99.90
13251;DHT22;6692;50.710;7.180;2024-01-15T03:14:21;2.20;99.90
13251;DHT22;6692;50.710;7.180;2024-01-15T03:16:22;2.20;99.90
13251;DHT22;6692;50.710;7.180;2024-01-15T03:18:24;2.20;99.90
13251;DHT22;6692;50.710;7.180;2024-01-15T03:20:25;2.20;99.90
13251;DHT22;6692;50.710;7.180;2024-01-15T03:22:27;2.20;99.90
13251;DHT22;6692;50.710;7.180;2024-01-15T03:24:29;2.20;99.90
13251;DHT22;6692;50.710;7.180;2024-01-15T03:26:30;2.20;99.90
13251;DHT22;6692;50.710;7.180;2024-01-15T03:28:30;2.20;99.90
13251;DHT22;6692;50.710;7.180;2024-01-15T03:30:31;2.30;99.90
13251;DHT22;6692;50.710;7.180;2024-01-15T03:32:32;2.30;99.90
13251;DHT22;6692;50.710;7.180;2024-01-15T03:34:34;2.30;99.90
13251;DHT22;6692;50.710;7.180;2024-01-15T03:36:36;2.30;99.90
13251;DHT22;6692;50.710;7.180;2024-01-15T03:38:39;2.30;99.90
13251;DHT22;6692;50.710;7.180;2024-01-15T03:40:38;2.30;99.90
13251;DHT22;6692;50.710;7.180;2024-01-15T03:42:39;2.30;99.90
13251;DHT22;6692;50.710;7.180;2024-01-15T03:44:40;2.30;99.90
13251;DHT22;6692;50.710;7.180;2024-01-15T03:46:41;2.30;99.90
13251;DHT22;6692;50.710;7.180;2024-01-15T03:48:42;2.30;99.90
13251;DHT22;6692;50.710;7.180;2024-01-15T03:50:42;2.30;99.90
13251;DHT22;6692;50.710;7.180;2024-01-15T03:52:43;2.30;99.90
13251;DHT22;6692;50.710;7.180;2024-01-15T03:54:44;2.30;99.90
13251;DHT22;6692;50.710;7.180;2024-01-15T03:56:45;2.30;99.90
13251;DHT22;6692;50.710;7.180;2024-01-15T03:58:46;2.30;99.90
13251;DHT22;6692;50.710;7.180;2024-01-15T04:00:47;2.40;99.90
13251;DHT22;6692;50.710;7.180;2024-01-15T04:02:48;2.30;99.90
13251;DHT22;6692;50.710;7.180;2024-01-15T04:04:48;2.30;99.90
13251;DHT22;6692;50.710;7.180;2024-01-15T04:06:49;2.30;99.90
13251;DHT22;6692;50.710;7.180;2024-01-15T04:08:50;2.40;99.90
13251;DHT22;6692;50.710;7.180;2024-01-15T04:10:51;2.40;99.90
13251;DHT22;6692;50.710;7.180;2024-01-15T04:12:51;2.30;99.90
13251;DHT22;6692;50.710;7.180;2024-01-15T04:14:52;2.30;99.90
13251;DHT22;6692;50.710;7.180;2024-01-15T04:16:53;2.30;99.90
13251;DHT22;6692;50.710;7.180;2024-01-15T04:18:53;2.30;99.90
13251;DHT22;6692;50.710;7.180;2024-01-15T04:20:54;2.30;99.90
13251;DHT22;6692;50.710;7.180;2024-01-15T04:22:56;2.30;99.90
13251;DHT22;6692;50.710;7.180;2024-01-15T04:24:56;2.30;99.90
13251;DHT22;6692;50.710;7.180;2024-01-15T04:26:58;2.30;99.90
13251;DHT22;6692;50.710;7.180;2024-01-15T04:28:59;2.30;99.90
13251;DHT22;6692;50.710;7.180;2024-01-15T04:30:59;2.30;99.90
13251;DHT22;6692;50.710;7.180;2024-01-15T04:33:00;2.40;99.90
13251;DHT22;6692;50.710;7.180;2024-01-15T04:35:01;2.30;99.90
13251;DHT22;6692;50.710;7.180;2024-01-15T04:37:02;2.30;99.90
13251;DHT22;6692;50.710;7.180;2024-01-15T04:39:03;2.30;99.90
13251;DHT22;6692;50.710;7.180;2024-01-15T04:41:04;2.30;99.90
13251;DHT22;6692;50.710;7.180;2024-01-15T04:43:05;2.40;99.90
13251;DHT22;6692;50.710;7.180;2024-01-15T04:45:06;2.40;99.90
13251;DHT22;6692;50.710;7.180;2024-01-15T04:47:06;2.40;99.90
13251;DHT22;6692;50.710;7.180;2024-01-15T04:49:07;2.30;99.90
13251;DHT22;6692;50.710;7.180;2024-01-15T04:51:09;2.30;99.90
13251;DHT22;6692;50.710;7.180;2024-01-15T04:53:09;2.30;99.90
13251;DHT22;6692;50.710;7.180;2024-01-15T04:55:10;2.30;99.90
13251;DHT22;6692;50.710;7.180;2024-01-15T04:57:11;2.30;99.90
13251;DHT22;6692;50.710;7.180;2024-01-15T04:59:11;2.30;99.90
13251;DHT22;6692;50.710;7.180;2024-01-15T05:01:12;2.30;99.90
13251;DHT22;6692;50.710;7.180;2024-01-15T05:03:13;2.30;99.90
13251;DHT22;6692;50.710;7.180;2024-01-15T05:05:13;2.30;99.90
13251;DHT22;6692;50.710;7.180;2024-01-15T05:07:14;2.30;99.90
13251;DHT22;6692;50.710;7.180;2024-01-15T05:09:15;2.30;99.90
13251;DHT22;6692;50.710;7.180;2024-01-15T05:11:16;2.30;99.90
13251;DHT22;6692;50.710;7.180;2024-01-15T05:13:17;2.30;99.90
13251;DHT22;6692;50.710;7.180;2024-01-15T05:15:18;2.30;99.90
13251;DHT22;6692;50.710;7.180;2024-01-15T05:17:19;2.30;99.90
13251;DHT22;6692;50.710;7.180;2024-01-15T05:19:20;2.30;99.90
13251;DHT22;6692;50.710;7.180;2024-01-15T05:21:21;2.30;99.90
13251;DHT22;6692;50.710;7.180;2024-01-15T05:23:21;2.30;99.90
13251;DHT22;6692;50.710;7.180;2024-01-15T05:25:22;2.30;99.90
13251;DHT22;6692;50.710;7.180;2024-01-15T05:27:23;2.30;99.90
13251;DHT22;6692;50.710;7.180;2024-01-15T05:29:23;2.30;99.90
13251;DHT22;6692;50.710;7.180;2024-01-15T05:31:24;2.30;99.90
13251;DHT22;6692;50.710;7.180;2024-01-15T05:33:25;2.30;99.90
13251;DHT22;6692;50.710;7.180;2024-01-15T05:35:26;2.30;99.90
13251;DHT22;6692;50.710;7.180;2024-01-15T05:37:27;2.30;99.90
13251;DHT22;6692;50.710;7.180;2024-01-15T05:39:28;2.30;99.90
13251;DHT22;6692;50.710;7.180;2024-01-15T05:41:28;2.30;99.90
13251;DHT22;6692;50.710;7.180;2024-01-15T05:43:29;2.20;99.90
13251;DHT22;6692;50.710;7.180;2024-01-15T05:45:30;2.20;99.90
13251;DHT22;6692;50.710;7.180;2024-01-15T05:47:30;2.20;99.90
13251;DHT22;6692;50.710;7.180;2024-01-15T05:49:31;2.20;99.90
13251;DHT22;6692;50.710;7.180;2024-01-15T05:51:32;2.20;99.90
13251;DHT22;6692;50.710;7.180;2024-01-15T05:53:33;2.20;99.90
13251;DHT22;6692;50.710;7.180;2024-01-15T05:55:35;2.10;99.90
13251;DHT22;6692;50.710;7.180;2024-01-15T05:57:35;2.10;99.90
13251;DHT22;6692;50.710;7.180;2024-01-15T05:59:35;2.10;99.90
13251;DHT22;6692;50.710;7.180;2024-01-15T06:01:37;2.10;99.90
13251;DHT22;6692;50.710;7.180;2024-01-15T06:03:38;2.10;99.90
13251;DHT22;6692;50.710;7.180;2024-01-15T06:05:39;2.20;99.90
13251;DHT22;6692;50.710;7.180;2024-01-15T06:07:40;2.10;99.90
13251;DHT22;6692;50.710;7.180;2024-01-15T06:09:41;2.20;99.90
13251;DHT22;6692;50.710;7.180;2024-01-15T06:11:41;2.20;99.90
13251;DHT22;6692;50.710;7.180;2024-01-15T06:13:42;2.20;99.90
13251;DHT22;6692;50.710;7.180;2024-01-15T06:15:43;2.20;99.90
13251;DHT22;6692;50.710;7.180;2024-01-15T06:17:43;2.30;99.90
13251;DHT22;6692;50.710;7.180;2024-01-15T06:19:44;2.30;99.90
13251;DHT22;6692;50.710;7.180;2024-01-15T06:21:45;2.30;99.90
13251;DHT22;6692;50.710;7.180;2024-01-15T06:23:45;2.30;99.90
13251;DHT22;6692;50.710;7.180;2024-01-15T06:25:46;2.30;99.90
13251;DHT22;6692;50.710;7.180;2024-01-15T06:27:47;2.30;99.90
13251;DHT22;6692;50.710;7.180;2024-01-15T06:29:48;2.30;99.90
13251;DHT22;6692;50.710;7.180;2024-01-15T06:31:50;2.30;99.90
13251;DHT22;6692;50.710;7.180;2024-01-15T06:33:50;2.30;99.90
13251;DHT22;6692;50.710;7.180;2024-01-15T06:35:51;2.30;99.90
13251;DHT22;6692;50.710;7.180;2024-01-15T06:37:52;2.30;99.90
13251;DHT22;6692;50.710;7.180;2024-01-15T06:39:53;2.30;99.90
13251;DHT22;6692;50.710;7.180;2024-01-15T06:41:53;2.30;99.90
13251;DHT22;6692;50.710;7.180;2024-01-15T06:43:54;2.30;99.90
13251;DHT22;6692;50.710;7.180;2024-01-15T06:45:55;2.20;99.90
13251;DHT22;6692;50.710;7.180;2024-01-15T06:47:55;2.20;99.90
13251;DHT22;6692;50.710;7.180;2024-01-15T06:49:57;2.30;99.90
13251;DHT22;6692;50.710;7.180;2024-01-15T06:51:57;2.30;99.90
13251;DHT22;6692;50.710;7.180;2024-01-15T06:53:58;2.20;99.90
13251;DHT22;6692;50.710;7.180;2024-01-15T06:55:59;2.20;99.90
13251;DHT22;6692;50.710;7.180;2024-01-15T06:58:00;2.30;99.90
13251;DHT22;6692;50.710;7.180;2024-01-15T07:00:00;2.30;99.90
13251;DHT22;6692;50.710;7.180;2024-01-15T07:02:02;2.30;99.90
13251;DHT22;6692;50.710;7.180;2024-01-15T07:04:03;2.30;99.90
13251;DHT22;6692;50.710;7.180;2024-01-15T07:06:04;2.30;99.90
13251;DHT22;6692;50.710;7.180;2024-01-15T07:08:06;2.20;99.90
13251;DHT22;6692;50.710;7.180;2024-01-15T07:10:07;2.20;99.90
13251;DHT22;6692;50.710;7.180;2024-01-15T07:12:09;2.10;99.90
13251;DHT22;6692;50.710;7.180;2024-01-15T07:14:10;2.10;99.90
13251;DHT22;6692;50.710;7.180;2024-01-15T07:16:10;2.10;99.90
13251;DHT22;6692;50.710;7.180;2024-01-15T07:18:11;2.10;99.90
13251;DHT22;6692;50.710;7.180;2024-01-15T07:20:12;2.00;99.90
13251;DHT22;6692;50.710;7.180;2024-01-15T07:22:12;2.00;99.90
13251;DHT22;6692;50.710;7.180;2024-01-15T07:24:13;2.00;99.90
13251;DHT22;6692;50.710;7.180;2024-01-15T07:26:14;2.10;99.90
13251;DHT22;6692;50.710;7.180;2024-01-15T07:28:16;2.10;99.90
13251;DHT22;6692;50.710;7.180;2024-01-15T07:30:17;2.10;99.90
13251;DHT22;6692;50.710;7.180;2024-01-15T07:32:17;2.10;99.90
13251;DHT22;6692;50.710;7.180;2024-01-15T07:34:18;2.10;99.90
13251;DHT22;6692;50.710;7.180;2024-01-15T07:36:19;2.20;99.90
13251;DHT22;6692;50.710;7.180;2024-01-15T07:38:19;2.20;99.90
13251;DHT22;6692;50.710;7.180;2024-01-15T07:40:20;2.30;99.90
13251;DHT22;6692;50.710;7.180;2024-01-15T07:42:21;2.20;99.90
13251;DHT22;6692;50.710;7.180;2024-01-15T07:44:22;2.30;99.90
13251;DHT22;6692;50.710;7.180;2024-01-15T07:46:22;2.30;99.90
13251;DHT22;6692;50.710;7.180;2024-01-15T07:48:23;2.30;99.90
13251;DHT22;6692;50.710;7.180;2024-01-15T07:50:25;2.30;99.90
13251;DHT22;6692;50.710;7.180;2024-01-15T07:52:26;2.40;99.90
13251;DHT22;6692;50.710;7.180;2024-01-15T07:54:27;2.40;99.90
13251;DHT22;6692;50.710;7.180;2024-01-15T07:56:27;2.40;99.90
13251;DHT22;6692;50.710;7.180;2024-01-15T07:58:28;2.40;99.90
13251;DHT22;6692;50.710;7.180;2024-01-15T08:00:29;2.40;99.90
13251;DHT22;6692;50.710;7.180;2024-01-15T08:02:30;2.40;99.90
13251;DHT22;6692;50.710;7.180;2024-01-15T08:04:30;2.40;99.90
13251;DHT22;6692;50.710;7.180;2024-01-15T08:06:31;2.50;99.90
13251;DHT22;6692;50.710;7.180;2024-01-15T08:08:32;2.50;99.90
13251;DHT22;6692;50.710;7.180;2024-01-15T08:10:32;2.50;99.90
13251;DHT22;6692;50.710;7.180;2024-01-15T08:12:33;2.60;99.90
13251;DHT22;6692;50.710;7.180;2024-01-15T08:14:34;2.60;99.90
13251;DHT22;6692;50.710;7.180;2024-01-15T08:16:35;2.60;99.90
13251;DHT22;6692;50.710;7.180;2024-01-15T08:18:35;2.60;99.90
13251;DHT22;6692;50.710;7.180;2024-01-15T08:20:36;2.70;99.90
13251;DHT22;6692;50.710;7.180;2024-01-15T08:22:38;2.60;99.90
13251;DHT22;6692;50.710;7.180;2024-01-15T08:24:37;2.70;99.90
13251;DHT22;6692;50.710;7.180;2024-01-15T08:26:38;2.60;99.90
13251;DHT22;6692;50.710;7.180;2024-01-15T08:28:39;2.60;99.90
13251;DHT22;6692;50.710;7.180;2024-01-15T08:30:39;2.60;99.90
13251;DHT22;6692;50.710;7.180;2024-01-15T08:32:40;2.60;99.90
13251;DHT22;6692;50.710;7.180;2024-01-15T08:34:41;2.60;99.90
13251;DHT22;6692;50.710;7.180;2024-01-15T08:36:42;2.60;99.90
13251;DHT22;6692;50.710;7.180;2024-01-15T08:38:43;2.70;99.90
13251;DHT22;6692;50.710;7.180;2024-01-15T08:40:45;2.80;99.90
13251;DHT22;6692;50.710;7.180;2024-01-15T08:42:45;2.80;99.90
13251;DHT22;6692;50.710;7.180;2024-01-15T08:44:46;2.80;99.90
13251;DHT22;6692;50.710;7.180;2024-01-15T08:46:47;2.90;99.90
13251;DHT22;6692;50.710;7.180;2024-01-15T08:48:47;2.90;99.90
13251;DHT22;6692;50.710;7.180;2024-01-15T08:50:48;2.90;99.90
13251;DHT22;6692;50.710;7.180;2024-01-15T08:52:49;3.00;99.90
13251;DHT22;6692;50.710;7.180;2024-01-15T08:54:50;3.00;99.90
13251;DHT22;6692;50.710;7.180;2024-01-15T08:56:50;3.00;99.90
13251;DHT22;6692;50.710;7.180;2024-01-15T08:58:51;2.90;99.90
13251;DHT22;6692;50.710;7.180;2024-01-15T09:00:52;2.90;99.90
13251;DHT22;6692;50.710;7.180;2024-01-15T09:02:52;2.80;99.90
13251;DHT22;6692;50.710;7.180;2024-01-15T09:04:53;2.80;99.90
13251;DHT22;6692;50.710;7.180;2024-01-15T09:06:54;2.80;99.90
13251;DHT22;6692;50.710;7.180;2024-01-15T09:08:55;2.80;99.90
13251;DHT22;6692;50.710;7.180;2024-01-15T09:10:55;2.80;99.90
13251;DHT22;6692;50.710;7.180;2024-01-15T09:12:56;2.80;99.90
13251;DHT22;6692;50.710;7.180;2024-01-15T09:14:57;2.70;99.90
13251;DHT22;6692;50.710;7.180;2024-01-15T09:16:57;2.80;99.90
13251;DHT22;6692;50.710;7.180;2024-01-15T09:18:58;2.70;99.90
13251;DHT22;6692;50.710;7.180;2024-01-15T09:20:59;2.70;99.90
13251;DHT22;6692;50.710;7.180;2024-01-15T09:23:00;2.70;99.90
13251;DHT22;6692;50.710;7.180;2024-01-15T09:25:00;2.70;99.90
13251;DHT22;6692;50.710;7.180;2024-01-15T09:27:01;2.80;99.90
13251;DHT22;6692;50.710;7.180;2024-01-15T09:29:02;2.80;99.90
13251;DHT22;6692;50.710;7.180;2024-01-15T09:31:03;2.80;99.90
13251;DHT22;6692;50.710;7.180;2024-01-15T09:33:05;2.80;99.90
13251;DHT22;6692;50.710;7.180;2024-01-15T09:35:06;2.80;99.90
13251;DHT22;6692;50.710;7.180;2024-01-15T09:37:07;2.80;99.90
13251;DHT22;6692;50.710;7.180;2024-01-15T09:39:08;2.80;99.90
13251;DHT22;6692;50.710;7.180;2024-01-15T09:41:08;2.80;99.90
13251;DHT22;6692;50.710;7.180;2024-01-15T09:43:10;2.90;99.90
13251;DHT22;6692;50.710;7.180;2024-01-15T09:45:11;2.90;99.90
13251;DHT22;6692;50.710;7.180;2024-01-15T09:47:12;2.80;99.90
13251;DHT22;6692;50.710;7.180;2024-01-15T09:49:13;2.80;99.90
13251;DHT22;6692;50.710;7.180;2024-01-15T09:51:14;2.80;99.90
13251;DHT22;6692;50.710;7.180;2024-01-15T09:53:14;2.80;99.90
13251;DHT22;6692;50.710;7.180;2024-01-15T09:55:15;2.80;99.90
13251;DHT22;6692;50.710;7.180;2024-01-15T09:57:17;2.60;99.90
13251;DHT22;6692;50.710;7.180;2024-01-15T09:59:17;2.60;99.90
13251;DHT22;6692;50.710;7.180;2024-01-15T10:01:19;2.50;99.90
13251;DHT22;6692;50.710;7.180;2024-01-15T10:03:19;2.50;99.90
13251;DHT22;6692;50.710;7.180;2024-01-15T10:05:19;2.40;99.90
13251;DHT22;6692;50.710;7.180;2024-01-15T10:07:20;2.40;99.90
13251;DHT22;6692;50.710;7.180;2024-01-15T10:09:21;2.30;99.90
13251;DHT22;6692;50.710;7.180;2024-01-15T10:11:21;2.30;99.90
13251;DHT22;6692;50.710;7.180;2024-01-15T10:13:23;2.20;99.90
13251;DHT22;6692;50.710;7.180;2024-01-15T10:15:25;2.20;99.90
13251;DHT22;6692;50.710;7.180;2024-01-15T10:17:24;2.20;99.90
13251;DHT22;6692;50.710;7.180;2024-01-15T10:19:26;2.20;99.90
13251;DHT22;6692;50.710;7.180;2024-01-15T10:21:27;2.20;99.90
13251;DHT22;6692;50.710;7.180;2024-01-15T10:23:27;2.20;99.90
13251;DHT22;6692;50.710;7.180;2024-01-15T10:25:29;2.20;99.90
13251;DHT22;6692;50.710;7.180;2024-01-15T10:27:29;2.20;99.90
13251;DHT22;6692;50.710;7.180;2024-01-15T10:29:29;2.10;99.90
13251;DHT22;6692;50.710;7.180;2024-01-15T10:31:30;2.10;99.90
13251;DHT22;6692;50.710;7.180;2024-01-15T10:33:31;2.00;99.90
13251;DHT22;6692;50.710;7.180;2024-01-15T10:35:32;2.00;99.90
13251;DHT22;6692;50.710;7.180;2024-01-15T10:37:33;2.10;99.90
13251;DHT22;6692;50.710;7.180;2024-01-15T10:39:33;2.10;99.90
13251;DHT22;6692;50.710;7.180;2024-01-15T10:41:34;2.20;99.90
13251;DHT22;6692;50.710;7.180;2024-01-15T10:43:35;2.20;99.90
13251;DHT22;6692;50.710;7.180;2024-01-15T10:45:37;2.30;99.90
13251;DHT22;6692;50.710;7.180;2024-01-15T10:47:37;2.30;99.90
13251;DHT22;6692;50.710;7.180;2024-01-15T10:49:38;2.30;99.90
13251;DHT22;6692;50.710;7.180;2024-01-15T10:51:39;2.30;99.90
13251;DHT22;6692;50.710;7.180;2024-01-15T10:53:40;2.30;99.90
13251;DHT22;6692;50.710;7.180;2024-01-15T10:55:42;2.30;99.90
13251;DHT22;6692;50.710;7.180;2024-01-15T10:57:43;2.20;99.90
13251;DHT22;6692;50.710;7.180;2024-01-15T10:59:43;2.20;99.90
13251;DHT22;6692;50.710;7.180;2024-01-15T11:01:45;2.10;99.90
13251;DHT22;6692;50.710;7.180;2024-01-15T11:03:46;2.10;99.90
13251;DHT22;6692;50.710;7.180;2024-01-15T11:05:47;2.10;99.90
13251;DHT22;6692;50.710;7.180;2024-01-15T11:07:48;2.20;99.90
13251;DHT22;6692;50.710;7.180;2024-01-15T11:09:49;2.20;99.90
13251;DHT22;6692;50.710;7.180;2024-01-15T11:11:52;2.30;99.90
13251;DHT22;6692;50.710;7.180;2024-01-15T11:13:51;2.20;99.90
13251;DHT22;6692;50.710;7.180;2024-01-15T11:15:57;2.30;99.90
13251;DHT22;6692;50.710;7.180;2024-01-15T11:17:58;2.30;99.90
13251;DHT22;6692;50.710;7.180;2024-01-15T11:19:58;2.20;99.90
13251;DHT22;6692;50.710;7.180;2024-01-15T11:21:59;2.20;99.90
13251;DHT22;6692;50.710;7.180;2024-01-15T11:24:00;2.20;99.90
13251;DHT22;6692;50.710;7.180;2024-01-15T11:26:01;2.20;99.90
13251;DHT22;6692;50.710;7.180;2024-01-15T11:28:03;2.20;99.90
13251;DHT22;6692;50.710;7.180;2024-01-15T11:30:04;2.10;99.90
13251;DHT22;6692;50.710;7.180;2024-01-15T11:32:08;2.20;99.90
13251;DHT22;6692;50.710;7.180;2024-01-15T11:34:10;2.20;99.90
13251;DHT22;6692;50.710;7.180;2024-01-15T11:36:11;2.20;99.90
13251;DHT22;6692;50.710;7.180;2024-01-15T11:38:19;2.20;99.90
13251;DHT22;6692;50.710;7.180;2024-01-15T11:40:13;2.20;99.90
13251;DHT22;6692;50.710;7.180;2024-01-15T11:42:14;2.20;99.90
13251;DHT22;6692;50.710;7.180;2024-01-15T11:44:15;2.20;99.90
13251;DHT22;6692;50.710;7.180;2024-01-15T11:46:15;2.20;99.90
13251;DHT22;6692;50.710;7.180;2024-01-15T11:48:16;2.20;99.90
13251;DHT22;6692;50.710;7.180;2024-01-15T11:50:17;2.10;99.90
13251;DHT22;6692;50.710;7.180;2024-01-15T11:52:18;2.20;99.90
13251;DHT22;6692;50.710;7.180;2024-01-15T11:54:18;2.20;99.90
13251;DHT22;6692;50.710;7.180;2024-01-15T11:56:19;2.20;99.90
13251;DHT22;6692;50.710;7.180;2024-01-15T11:58:20;2.20;99.90
13251;DHT22;6692;50.710;7.180;2024-01-15T12:00:21;2.20;99.90
13251;DHT22;6692;50.710;7.180;2024-01-15T12:02:21;2.20;99.90
13251;DHT22;6692;50.710;7.180;2024-01-15T12:04:22;2.20;99.90
13251;DHT22;6692;50.710;7.180;2024-01-15T12:06:23;2.20;99.90
13251;DHT22;6692;50.710;7.180;2024-01-15T12:08:24;2.20;99.90
13251;DHT22;6692;50.710;7.180;2024-01-15T12:10:25;2.20;99.90
13251;DHT22;6692;50.710;7.180;2024-01-15T12:12:29;2.30;99.90
13251;DHT22;6692;50.710;7.180;2024-01-15T12:14:28;2.30;99.90
13251;DHT22;6692;50.710;7.180;2024-01-15T12:16:29;2.30;99.90
13251;DHT22;6692;50.710;7.180;2024-01-15T12:18:29;2.40;99.90
13251;DHT22;6692;50.710;7.180;2024-01-15T12:20:31;2.50;99.90
13251;DHT22;6692;50.710;7.180;2024-01-15T12:22:32;2.50;99.90
13251;DHT22;6692;50.710;7.180;2024-01-15T12:24:33;2.50;99.90
13251;DHT22;6692;50.710;7.180;2024-01-15T12:26:34;2.50;99.90
13251;DHT22;6692;50.710;7.180;2024-01-15T12:28:36;2.60;99.90
13251;DHT22;6692;50.710;7.180;2024-01-15T12:30:36;2.50;99.90
13251;DHT22;6692;50.710;7.180;2024-01-15T12:32:37;2.60;99.90
13251;DHT22;6692;50.710;7.180;2024-01-15T12:34:38;2.70;99.90
13251;DHT22;6692;50.710;7.180;2024-01-15T12:36:40;2.70;99.90
13251;DHT22;6692;50.710;7.180;2024-01-15T12:38:40;2.70;99.90
13251;DHT22;6692;50.710;7.180;2024-01-15T12:40:43;2.90;99.90
13251;DHT22;6692;50.710;7.180;2024-01-15T12:42:42;2.80;99.90
13251;DHT22;6692;50.710;7.180;2024-01-15T12:44:44;2.90;99.90
13251;DHT22;6692;50.710;7.180;2024-01-15T12:46:44;3.00;99.90
13251;DHT22;6692;50.710;7.180;2024-01-15T12:48:44;3.00;99.90
13251;DHT22;6692;50.710;7.180;2024-01-15T12:50:46;3.10;99.90
13251;DHT22;6692;50.710;7.180;2024-01-15T12:52:47;3.10;99.90
13251;DHT22;6692;50.710;7.180;2024-01-15T12:54:49;3.20;99.90
13251;DHT22;6692;50.710;7.180;2024-01-15T12:56:50;3.30;99.90
13251;DHT22;6692;50.710;7.180;2024-01-15T12:58:51;3.40;99.90
13251;DHT22;6692;50.710;7.180;2024-01-15T13:00:51;3.60;99.90
13251;DHT22;6692;50.710;7.180;2024-01-15T13:02:52;3.60;99.90
13251;DHT22;6692;50.710;7.180;2024-01-15T13:04:53;3.50;99.90
13251;DHT22;6692;50.710;7.180;2024-01-15T13:06:54;3.40;99.90
13251;DHT22;6692;50.710;7.180;2024-01-15T13:08:55;3.30;99.90